createdAt,value
2019-03-16T00:01:34.998Z,4.50
2019-03-16T00:12:34.236Z,4.48
2019-03-16T00:23:35.229Z,4.38
2019-03-16T00:34:39.202Z,4.36
2019-03-16T00:45:39.585Z,4.25
2019-03-16T00:56:38.978Z,4.02
2019-03-16T01:07:42.640Z,4.15
2019-03-16T01:18:39.309Z,4.16
2019-03-16T01:29:41.517Z,4.07
2019-03-16T01:40:45.050Z,3.80
2019-03-16T01:51:42.478Z,3.69
2019-03-16T02:02:55.172Z,3.75
2019-03-16T02:13:53.625Z,3.86
2019-03-16T02:24:55.582Z,3.86
2019-03-16T02:36:00.168Z,4.05
2019-03-16T02:46:57.538Z,4.40
2019-03-16T02:57:58.559Z,4.32
2019-03-16T03:09:00.645Z,4.69
2019-03-16T03:20:03.769Z,5.24
2019-03-16T03:31:06.647Z,5.47
2019-03-16T03:42:03.592Z,5.63
2019-03-16T03:53:03.873Z,5.39
2019-03-16T04:04:15.750Z,5.39
2019-03-16T04:15:14.161Z,5.32
2019-03-16T04:26:15.145Z,5.62
2019-03-16T04:37:17.144Z,5.70
2019-03-16T04:48:10.721Z,5.62
2019-03-16T04:59:10.403Z,6.34
2019-03-16T05:10:14.237Z,6.11
2019-03-16T05:21:15.709Z,6.08
2019-03-16T05:32:17.923Z,6.06
2019-03-16T05:43:16.255Z,6.21
2019-03-16T05:54:15.990Z,6.41
2019-03-16T06:05:19.301Z,6.60
2019-03-16T06:16:14.585Z,6.59
2019-03-16T06:27:18.575Z,7.03
2019-03-16T06:38:13.822Z,7.56
2019-03-16T06:49:07.881Z,8.14
2019-03-16T07:00:08.808Z,8.37
2019-03-16T07:11:10.467Z,8.65
2019-03-16T07:22:11.681Z,8.62
2019-03-16T07:33:13.934Z,9.14
2019-03-16T07:44:11.885Z,9.80
2019-03-16T07:55:09.092Z,10.53
2019-03-16T08:06:12.817Z,10.96
2019-03-16T08:17:09.833Z,11.65
2019-03-16T08:28:03.205Z,11.76
2019-03-16T08:39:02.876Z,12.11
2019-03-16T08:49:59.356Z,11.95
2019-03-16T09:00:59.431Z,11.75
2019-03-16T09:11:59.190Z,11.67
2019-03-16T09:22:56.465Z,11.78
2019-03-16T09:33:52.791Z,11.89
2019-03-16T09:44:52.367Z,11.75
2019-03-16T09:55:50.837Z,11.74
2019-03-16T10:06:50.641Z,12.03
2019-03-16T10:17:47.731Z,11.69
2019-03-16T10:28:47.791Z,12.12
2019-03-16T10:39:48.993Z,12.16
2019-03-16T10:50:50.299Z,12.42
2019-03-16T11:01:53.422Z,13.03
2019-03-16T11:12:53.513Z,13.21
2019-03-16T11:23:52.687Z,13.07
2019-03-16T11:34:54.503Z,13.58
2019-03-16T11:45:55.927Z,13.11
2019-03-16T11:57:00.866Z,13.43
2019-03-16T12:08:01.874Z,13.47
2019-03-16T12:19:12.821Z,13.33
2019-03-16T12:30:16.886Z,13.92
2019-03-16T12:41:20.924Z,14.46
2019-03-16T12:52:24.790Z,14.84
2019-03-16T13:03:29.731Z,15.05
2019-03-16T13:14:39.527Z,15.21
2019-03-16T13:25:37.178Z,14.90
2019-03-16T13:36:39.617Z,15.02
2019-03-16T13:47:40.771Z,16.57
2019-03-16T13:58:52.123Z,17.21
2019-03-16T14:09:51.139Z,16.48
2019-03-16T14:20:59.278Z,16.04
2019-03-16T14:31:59.976Z,15.66
2019-03-16T14:42:52.796Z,15.85
2019-03-16T14:53:50.985Z,15.81
2019-03-16T15:04:53.987Z,15.35
2019-03-16T15:15:59.006Z,16.35
2019-03-16T15:26:59.391Z,16.25
2019-03-16T15:38:04.033Z,15.89
2019-03-16T15:49:04.439Z,15.57
2019-03-16T16:00:05.049Z,14.85
2019-03-16T16:11:12.452Z,15.26
2019-03-16T16:22:02.700Z,15.01
2019-03-16T16:33:03.676Z,13.71
2019-03-16T16:44:01.475Z,12.05
2019-03-16T16:55:03.462Z,11.69
2019-03-16T17:05:59.133Z,10.69
2019-03-16T17:17:03.673Z,10.18
2019-03-16T17:28:04.592Z,9.67
2019-03-16T17:39:01.885Z,9.64
2019-03-16T17:49:58.589Z,9.24
2019-03-16T18:01:01.164Z,8.91
2019-03-16T18:12:01.716Z,8.90
2019-03-16T18:23:02.330Z,8.65
2019-03-16T18:33:59.437Z,8.44
2019-03-16T18:44:57.872Z,8.04
2019-03-16T18:55:51.660Z,7.68
2019-03-16T19:06:47.130Z,7.45
2019-03-16T19:17:41.121Z,7.12
2019-03-16T19:28:38.811Z,7.01
2019-03-16T19:39:35.711Z,6.72
2019-03-16T19:50:29.644Z,6.66
2019-03-16T20:01:15.281Z,6.54
2019-03-16T20:12:05.676Z,6.45
2019-03-16T20:23:04.068Z,6.44
2019-03-16T20:33:39.050Z,6.34
2019-03-16T20:44:36.902Z,6.03
2019-03-16T20:55:15.304Z,6.18
2019-03-16T21:06:06.039Z,6.54
2019-03-16T21:16:56.903Z,5.96
2019-03-16T21:27:51.418Z,5.92
2019-03-16T21:38:48.974Z,5.81
2019-03-16T21:49:36.517Z,5.78
2019-03-16T22:00:32.497Z,5.59
2019-03-16T22:11:27.869Z,5.50
2019-03-16T22:22:22.291Z,5.39
2019-03-16T22:33:19.964Z,5.23
2019-03-16T22:44:14.225Z,5.26
2019-03-16T22:55:10.971Z,5.16
2019-03-16T23:06:05.671Z,4.83
2019-03-16T23:17:02.623Z,4.80
2019-03-16T23:28:05.024Z,4.62
2019-03-16T23:39:04.442Z,4.58
2019-03-16T23:49:59.369Z,4.43
